Time;durP1;ratioP1;P1;durP2;ratioP2;P2;SDS_P1;SDS_P2;PMS_P1;PMS_P2;Temp;Humidity;BMP_temperature;BMP_pressure;BME280_temperature;BME280_humidity;BME280_pressure;Samples;Min_cycle;Max_cycle;Signal;HPM_P1;HPM_P2
2022/03/06 00:01:05;;;;;;;0.40;0.40;;;-0.20;99.90;;;;;;5094406;28;20173;-72
2022/03/06 00:03:31;;;;;;;0.40;0.40;;;-0.20;99.90;;;;;;5094131;28;20055;-72
2022/03/06 00:05:57;;;;;;;0.40;0.40;;;-0.30;99.90;;;;;;5094030;28;20476;-73
2022/03/06 00:08:22;;;;;;;0.40;0.40;;;-0.40;99.90;;;;;;5093900;28;20127;-73
2022/03/06 00:10:49;;;;;;;0.40;0.40;;;-0.40;99.90;;;;;;5093960;28;20040;-73
2022/03/06 00:13:14;;;;;;;0.40;0.40;;;-0.40;99.90;;;;;;5093913;28;20048;-72
2022/03/06 00:15:41;;;;;;;0.40;0.40;;;-0.40;99.90;;;;;;5094171;28;20109;-72
2022/03/06 00:18:07;;;;;;;0.40;0.40;;;-0.40;99.90;;;;;;5093889;28;20118;-73
2022/03/06 00:20:33;;;;;;;0.40;0.40;;;-0.50;99.90;;;;;;5093850;28;20079;-72
2022/03/06 00:22:59;;;;;;;0.40;0.40;;;-0.40;99.90;;;;;;5093717;28;20052;-74
2022/03/06 00:25:25;;;;;;;0.40;0.40;;;-0.20;99.90;;;;;;5093794;28;20042;-73
2022/03/06 00:27:50;;;;;;;0.40;0.40;;;-0.50;99.90;;;;;;5093768;28;20396;-73
2022/03/06 00:30:16;;;;;;;0.40;0.40;;;-0.60;99.90;;;;;;5093697;28;20040;-72
2022/03/06 00:32:42;;;;;;;0.40;0.40;;;-0.60;99.90;;;;;;5093796;28;20092;-72
2022/03/06 00:35:09;;;;;;;0.40;0.40;;;-0.60;99.90;;;;;;5093697;28;20083;-72
2022/03/06 00:37:35;;;;;;;0.40;0.40;;;-0.60;99.90;;;;;;5094974;28;20050;-72
2022/03/06 00:40:02;;;;;;;0.40;0.40;;;-0.60;99.90;;;;;;5097173;28;20475;-72
2022/03/06 00:42:28;;;;;;;0.40;0.40;;;-0.60;99.90;;;;;;5097843;28;20119;-73
2022/03/06 00:44:54;;;;;;;0.40;0.40;;;-0.60;99.90;;;;;;5097809;28;20205;-73
2022/03/06 00:47:19;;;;;;;0.40;0.40;;;-0.90;99.90;;;;;;5097675;28;20040;-71
2022/03/06 00:49:45;;;;;;;0.40;0.40;;;-0.70;99.90;;;;;;5096454;28;20044;-73
2022/03/06 00:52:12;;;;;;;0.40;0.40;;;-0.70;99.90;;;;;;5097675;28;20052;-73
2022/03/06 00:54:37;;;;;;;0.40;0.40;;;-0.70;99.90;;;;;;5097290;28;20548;-72
2022/03/06 00:57:03;;;;;;;0.40;0.40;;;-0.70;99.90;;;;;;5097969;28;20121;-72
2022/03/06 00:59:34;;;;;;;0.40;0.40;;;-0.70;99.90;;;;;;5097489;28;20048;-72
2022/03/06 01:02:04;;;;;;;0.40;0.40;;;-0.70;99.90;;;;;;5097499;28;20055;-72
2022/03/06 01:04:30;;;;;;;0.40;0.40;;;-0.70;99.90;;;;;;5097554;28;20117;-73
2022/03/06 01:06:56;;;;;;;0.40;0.40;;;-0.80;99.90;;;;;;5097216;28;20036;-71
2022/03/06 01:09:21;;;;;;;0.40;0.40;;;-0.80;99.90;;;;;;5097314;28;20052;-73
2022/03/06 01:11:47;;;;;;;0.40;0.40;;;-0.80;99.90;;;;;;5097485;28;20048;-72
2022/03/06 01:14:12;;;;;;;0.40;0.40;;;-0.80;99.90;;;;;;5097515;28;20126;-72
2022/03/06 01:16:38;;;;;;;0.40;0.40;;;0.00;99.90;;;;;;5097235;28;20050;-73
2022/03/06 01:19:04;;;;;;;0.40;0.40;;;-0.80;99.90;;;;;;5097118;28;20047;-73
2022/03/06 01:21:29;;;;;;;0.40;0.40;;;-0.80;99.90;;;;;;5096993;28;20164;-73
2022/03/06 01:23:55;;;;;;;0.40;0.40;;;-0.80;99.90;;;;;;5097050;28;20122;-73
2022/03/06 01:26:21;;;;;;;0.40;0.40;;;-0.90;99.90;;;;;;5097236;28;20136;-73
2022/03/06 01:28:46;;;;;;;0.40;0.40;;;-1.00;99.90;;;;;;5097009;28;20077;-71
2022/03/06 01:31:12;;;;;;;0.40;0.40;;;-1.00;99.90;;;;;;5096878;28;20044;-73
2022/03/06 01:33:37;;;;;;;0.40;0.40;;;-1.00;99.90;;;;;;5096911;28;20043;-72
2022/03/06 01:36:04;;;;;;;0.40;0.40;;;-1.00;99.90;;;;;;5096752;28;20051;-72
2022/03/06 01:38:29;;;;;;;0.40;0.40;;;-1.00;99.90;;;;;;5096745;28;20055;-72
2022/03/06 01:40:55;;;;;;;0.30;0.30;;;-1.10;99.90;;;;;;5096675;28;20044;-73
2022/03/06 01:43:20;;;;;;;0.40;0.40;;;-1.10;99.90;;;;;;5096695;28;20472;-73
2022/03/06 01:45:46;;;;;;;0.40;0.40;;;-1.10;99.90;;;;;;5096663;28;20411;-73
2022/03/06 01:48:12;;;;;;;0.40;0.40;;;-1.10;99.90;;;;;;5096432;28;20487;-72
2022/03/06 01:50:39;;;;;;;0.40;0.40;;;-1.10;99.90;;;;;;5095663;28;20043;-72
2022/03/06 01:53:08;;;;;;;0.40;0.40;;;-1.00;99.90;;;;;;5096487;28;20055;-73
2022/03/06 01:55:35;;;;;;;0.40;0.40;;;-0.80;99.90;;;;;;5096842;28;20044;-73
2022/03/06 01:58:04;;;;;;;0.40;0.40;;;-1.20;99.90;;;;;;5096416;28;20047;-72
2022/03/06 02:00:33;;;;;;;0.40;0.40;;;-1.30;99.90;;;;;;5096390;28;20062;-73
2022/03/06 02:02:59;;;;;;;0.40;0.40;;;-1.30;99.90;;;;;;5096281;28;20044;-71
2022/03/06 02:05:24;;;;;;;0.40;0.40;;;-1.30;99.90;;;;;;5096123;28;20067;-71
2022/03/06 02:07:50;;;;;;;0.40;0.40;;;-1.20;99.90;;;;;;5096166;28;20086;-73
2022/03/06 02:10:16;;;;;;;0.40;0.40;;;-1.20;99.90;;;;;;5096160;28;20044;-73
2022/03/06 02:12:42;;;;;;;0.40;0.40;;;-1.30;99.90;;;;;;5096299;28;20056;-72
2022/03/06 02:15:10;;;;;;;0.40;0.40;;;-1.30;99.90;;;;;;5096317;28;20059;-73
2022/03/06 02:17:37;;;;;;;0.40;0.40;;;-1.30;99.90;;;;;;5095965;28;20043;-73
2022/03/06 02:20:09;;;;;;;0.40;0.40;;;-1.30;99.90;;;;;;5095890;28;20055;-73
2022/03/06 02:22:43;;;;;;;0.40;0.40;;;-1.30;99.90;;;;;;5095592;28;20503;-73
2022/03/06 02:25:13;;;;;;;0.40;0.40;;;-1.30;99.90;;;;;;5095909;28;20181;-73
2022/03/06 02:27:38;;;;;;;0.40;0.40;;;-1.40;99.90;;;;;;5095792;28;20044;-73
2022/03/06 02:30:07;;;;;;;0.40;0.40;;;-1.40;99.90;;;;;;5095723;28;20047;-73
2022/03/06 02:32:33;;;;;;;0.40;0.40;;;-1.30;99.90;;;;;;5095694;28;20090;-71
2022/03/06 02:34:58;;;;;;;0.40;0.40;;;-1.40;99.90;;;;;;5095722;28;20040;-73
2022/03/06 02:37:24;;;;;;;0.40;0.40;;;-1.30;99.90;;;;;;5095273;28;20305;-72
2022/03/06 02:39:50;;;;;;;0.40;0.40;;;-1.30;99.90;;;;;;5095597;28;20040;-72
2022/03/06 02:42:24;;;;;;;0.40;0.40;;;-1.30;99.90;;;;;;5095386;28;20097;-73
2022/03/06 02:44:50;;;;;;;0.40;0.40;;;-1.30;99.90;;;;;;5094445;28;20432;-73
2022/03/06 02:47:15;;;;;;;0.40;0.40;;;-1.30;99.90;;;;;;5095231;28;20132;-73
2022/03/06 02:49:41;;;;;;;0.40;0.40;;;-1.30;99.90;;;;;;5095074;28;20050;-73
2022/03/06 02:52:08;;;;;;;0.40;0.40;;;-0.80;99.90;;;;;;5095409;28;20089;-72
2022/03/06 02:54:33;;;;;;;0.40;0.40;;;-1.30;99.90;;;;;;5095500;28;20044;-73
2022/03/06 02:56:59;;;;;;;0.40;0.40;;;-1.40;99.90;;;;;;5095088;28;20043;-71
2022/03/06 02:59:25;;;;;;;0.40;0.40;;;-1.40;99.90;;;;;;5095261;28;20051;-72
2022/03/06 03:01:51;;;;;;;0.40;0.40;;;-1.30;99.90;;;;;;5094922;28;20051;-73
2022/03/06 03:04:16;;;;;;;0.40;0.40;;;-1.30;99.90;;;;;;5095651;28;20086;-72
2022/03/06 03:06:42;;;;;;;0.40;0.40;;;0.00;99.90;;;;;;5094980;28;20469;-72
2022/03/06 03:09:08;;;;;;;0.40;0.40;;;-0.90;99.90;;;;;;5094983;28;20047;-72
2022/03/06 03:11:34;;;;;;;0.40;0.40;;;-1.30;99.90;;;;;;5095175;28;20184;-73
2022/03/06 03:14:01;;;;;;;0.40;0.40;;;-1.20;99.90;;;;;;5095047;28;20067;-73
2022/03/06 03:16:27;;;;;;;0.40;0.40;;;-1.20;99.90;;;;;;5094611;28;20052;-71
2022/03/06 03:18:53;;;;;;;0.40;0.40;;;-1.20;99.90;;;;;;5094896;28;20048;-73
2022/03/06 03:21:18;;;;;;;0.40;0.40;;;-1.20;99.90;;;;;;5094803;28;20058;-73
2022/03/06 03:23:44;;;;;;;0.40;0.40;;;-1.10;99.90;;;;;;5094465;28;20044;-72
2022/03/06 03:26:10;;;;;;;0.40;0.40;;;-1.10;99.90;;;;;;5094660;28;20040;-73
2022/03/06 03:28:35;;;;;;;0.40;0.40;;;-1.10;99.90;;;;;;5094695;28;20051;-73
2022/03/06 03:31:01;;;;;;;0.40;0.40;;;-0.40;99.90;;;;;;5094524;28;20043;-72
2022/03/06 03:33:27;;;;;;;0.40;0.40;;;-1.00;99.90;;;;;;5094581;28;20101;-73
2022/03/06 03:35:52;;;;;;;0.40;0.40;;;-0.60;99.90;;;;;;5094519;28;20055;-73
2022/03/06 03:38:18;;;;;;;0.40;0.40;;;-0.90;99.90;;;;;;5094428;28;20040;-73
2022/03/06 03:40:43;;;;;;;0.40;0.40;;;-0.90;99.90;;;;;;5094627;28;20090;-73
2022/03/06 03:43:09;;;;;;;0.40;0.40;;;-0.80;99.90;;;;;;5094575;28;20059;-72
2022/03/06 03:45:35;;;;;;;0.40;0.40;;;-0.90;99.90;;;;;;5094405;28;20079;-73
2022/03/06 03:48:01;;;;;;;0.40;0.40;;;-0.80;99.90;;;;;;5094190;28;20500;-72
2022/03/06 03:50:26;;;;;;;0.40;0.40;;;-0.80;99.90;;;;;;5094672;28;20040;-72
2022/03/06 03:52:52;;;;;;;0.40;0.40;;;-0.80;99.90;;;;;;5094220;28;20430;-72
2022/03/06 03:55:18;;;;;;;0.40;0.40;;;-0.80;99.90;;;;;;5094254;28;20493;-72
2022/03/06 03:57:44;;;;;;;0.40;0.40;;;-0.60;99.90;;;;;;5094183;28;20122;-72
2022/03/06 04:00:10;;;;;;;0.40;0.40;;;-0.80;99.90;;;;;;5094168;28;20127;-72
2022/03/06 04:02:36;;;;;;;0.40;0.40;;;-0.80;99.90;;;;;;5094108;28;20127;-72
2022/03/06 04:05:01;;;;;;;0.40;0.40;;;-0.80;99.90;;;;;;5094008;28;20487;-73
2022/03/06 04:07:27;;;;;;;0.40;0.40;;;-0.80;99.90;;;;;;5093960;28;20122;-73
2022/03/06 04:09:53;;;;;;;0.40;0.40;;;-0.80;99.90;;;;;;5094202;28;20123;-73
2022/03/06 04:12:18;;;;;;;0.40;0.40;;;-0.80;99.90;;;;;;5093070;28;20063;-73
2022/03/06 04:14:45;;;;;;;0.40;0.40;;;-0.20;99.90;;;;;;5093760;28;20079;-72
2022/03/06 04:17:10;;;;;;;0.40;0.40;;;-0.50;99.90;;;;;;5093818;28;20047;-72
2022/03/06 04:19:36;;;;;;;0.40;0.40;;;-0.40;99.90;;;;;;5093829;28;20439;-72
2022/03/06 04:22:01;;;;;;;0.40;0.40;;;-0.80;99.90;;;;;;5094192;28;20044;-73
2022/03/06 04:24:27;;;;;;;0.40;0.40;;;-0.90;99.90;;;;;;5093867;28;20411;-73
2022/03/06 04:26:53;;;;;;;0.40;0.40;;;0.00;99.90;;;;;;5093729;28;20044;-72
2022/03/06 04:29:18;;;;;;;0.40;0.40;;;-0.90;99.90;;;;;;5093786;28;20047;-73
2022/03/06 04:31:44;;;;;;;0.40;0.40;;;-0.80;99.90;;;;;;5093727;28;20047;-72
2022/03/06 04:34:10;;;;;;;0.40;0.40;;;-1.00;99.90;;;;;;5093815;28;20468;-73
2022/03/06 04:36:35;;;;;;;0.40;0.40;;;-1.00;99.90;;;;;;5093709;28;20047;-72
2022/03/06 04:39:01;;;;;;;0.40;0.40;;;-1.00;99.90;;;;;;5093743;28;20096;-73
2022/03/06 04:41:26;;;;;;;0.40;0.40;;;-1.00;99.90;;;;;;5093666;28;20044;-71
2022/03/06 04:43:52;;;;;;;0.40;0.40;;;-1.10;99.90;;;;;;5093668;28;20040;-71
2022/03/06 04:46:18;;;;;;;0.40;0.40;;;-1.10;99.90;;;;;;5093491;28;20516;-73
2022/03/06 04:48:44;;;;;;;0.40;0.40;;;-1.10;99.90;;;;;;5093533;28;20051;-73
2022/03/06 04:51:10;;;;;;;0.40;0.40;;;-1.20;99.90;;;;;;5093612;28;20282;-71
2022/03/06 04:53:36;;;;;;;0.40;0.40;;;-0.50;99.90;;;;;;5093496;28;20044;-73
2022/03/06 04:56:03;;;;;;;0.40;0.40;;;-1.20;99.90;;;;;;5093773;28;20087;-72
2022/03/06 04:58:29;;;;;;;0.40;0.40;;;-1.20;99.90;;;;;;5093560;28;20127;-71
2022/03/06 05:00:54;;;;;;;0.40;0.40;;;-1.20;99.90;;;;;;5093470;28;20511;-71
2022/03/06 05:03:20;;;;;;;0.40;0.40;;;-1.20;99.90;;;;;;5093430;28;20048;-73
2022/03/06 05:05:46;;;;;;;0.40;0.40;;;-1.20;99.90;;;;;;5093825;28;20082;-73
2022/03/06 05:08:11;;;;;;;0.40;0.40;;;-1.20;99.90;;;;;;5093462;28;20046;-72
2022/03/06 05:10:37;;;;;;;0.40;0.40;;;-1.30;99.90;;;;;;5093389;28;20066;-71
2022/03/06 05:13:03;;;;;;;0.40;0.40;;;-1.30;99.90;;;;;;5093232;28;20101;-73
2022/03/06 05:15:28;;;;;;;0.40;0.40;;;-1.20;99.90;;;;;;5093408;28;20048;-72
2022/03/06 05:17:54;;;;;;;0.40;0.40;;;-1.20;99.90;;;;;;5093011;28;20032;-73
2022/03/06 05:20:20;;;;;;;0.40;0.40;;;-1.30;99.90;;;;;;5093356;28;20079;-73
2022/03/06 05:22:46;;;;;;;0.40;0.40;;;-1.30;99.90;;;;;;5093206;28;20135;-72
2022/03/06 05:25:12;;;;;;;0.40;0.40;;;-1.20;99.90;;;;;;5095382;28;20079;-73
2022/03/06 05:27:38;;;;;;;0.40;0.40;;;-1.30;99.90;;;;;;5097394;28;20036;-73
2022/03/06 05:30:06;;;;;;;0.40;0.40;;;-1.30;99.90;;;;;;5096921;28;20055;-73
2022/03/06 05:32:32;;;;;;;0.40;0.40;;;-1.30;99.90;;;;;;5096731;28;20044;-71
2022/03/06 05:34:57;;;;;;;0.40;0.40;;;-1.20;99.90;;;;;;5096497;28;20043;-72
2022/03/06 05:37:23;;;;;;;0.40;0.40;;;-1.30;99.90;;;;;;5097315;28;20105;-72
2022/03/06 05:39:48;;;;;;;0.40;0.40;;;-1.30;99.90;;;;;;5096673;28;20046;-73
2022/03/06 05:42:14;;;;;;;0.40;0.40;;;-0.80;99.90;;;;;;5096765;28;20119;-73
2022/03/06 05:44:41;;;;;;;0.40;0.40;;;-1.30;99.90;;;;;;5096695;28;20044;-72
2022/03/06 05:47:07;;;;;;;0.40;0.40;;;-1.30;99.90;;;;;;5096986;28;20127;-72
2022/03/06 05:49:33;;;;;;;0.40;0.40;;;-1.30;99.90;;;;;;5096282;28;20560;-71
2022/03/06 05:51:58;;;;;;;0.40;0.40;;;-1.30;99.90;;;;;;5096523;28;20131;-71
2022/03/06 05:54:24;;;;;;;0.40;0.40;;;-1.20;99.90;;;;;;5096270;28;20127;-72
2022/03/06 05:56:50;;;;;;;0.40;0.40;;;-1.30;99.90;;;;;;5095528;28;20056;-71
2022/03/06 05:59:15;;;;;;;0.40;0.40;;;-1.30;99.90;;;;;;5096376;28;20046;-72
2022/03/06 06:01:41;;;;;;;0.40;0.40;;;-1.40;99.90;;;;;;5096270;28;20059;-73
2022/03/06 06:04:06;;;;;;;0.40;0.40;;;-1.40;99.90;;;;;;5096399;28;20090;-73
2022/03/06 06:06:32;;;;;;;0.40;0.40;;;-1.40;99.90;;;;;;5096174;28;20036;-72
2022/03/06 06:08:58;;;;;;;0.40;0.40;;;-0.60;99.90;;;;;;5096243;28;20395;-71
2022/03/06 06:11:23;;;;;;;0.40;0.40;;;-1.40;99.90;;;;;;5095967;28;20044;-72
2022/03/06 06:13:49;;;;;;;0.40;0.40;;;-1.40;99.90;;;;;;5095806;28;20044;-71
2022/03/06 06:16:15;;;;;;;0.40;0.40;;;-1.40;99.90;;;;;;5095994;28;20051;-72
2022/03/06 06:18:40;;;;;;;0.40;0.40;;;-1.40;99.90;;;;;;5096046;28;20065;-70
2022/03/06 06:21:06;;;;;;;0.40;0.40;;;-1.30;99.90;;;;;;5095994;28;20052;-71
2022/03/06 06:23:32;;;;;;;0.50;0.50;;;-1.30;99.90;;;;;;5096027;28;20129;-71
2022/03/06 06:25:58;;;;;;;0.40;0.40;;;-1.30;99.90;;;;;;5095888;28;20047;-71
2022/03/06 06:28:24;;;;;;;0.40;0.40;;;-1.00;99.90;;;;;;5095774;28;20032;-72
2022/03/06 06:30:49;;;;;;;0.40;0.40;;;-1.20;99.90;;;;;;5095755;28;20051;-72
2022/03/06 06:33:15;;;;;;;0.40;0.40;;;-1.10;99.90;;;;;;5096183;28;20044;-70
2022/03/06 06:35:41;;;;;;;0.40;0.40;;;-1.00;99.90;;;;;;5095260;28;20402;-73
2022/03/06 06:38:07;;;;;;;0.50;0.50;;;-1.00;99.90;;;;;;5095604;28;20032;-71
2022/03/06 06:40:32;;;;;;;0.40;0.40;;;-0.90;99.90;;;;;;5095618;28;20051;-72
2022/03/06 06:42:58;;;;;;;0.40;0.40;;;-0.80;99.90;;;;;;5095749;28;20130;-72
2022/03/06 06:45:24;;;;;;;0.40;0.40;;;-0.80;99.90;;;;;;5095515;28;20544;-72
2022/03/06 06:47:49;;;;;;;0.40;0.40;;;0.00;99.90;;;;;;5095574;28;20036;-72
2022/03/06 06:50:15;;;;;;;0.45;0.45;;;0.10;99.90;;;;;;5095400;28;20044;-71
2022/03/06 06:52:40;;;;;;;0.50;0.50;;;-0.60;99.90;;;;;;5095724;28;20052;-73
2022/03/06 06:55:06;;;;;;;0.40;0.40;;;-0.50;99.90;;;;;;5095596;28;20480;-73
2022/03/06 06:57:32;;;;;;;0.40;0.40;;;-0.50;99.90;;;;;;5095325;28;20039;-72
2022/03/06 06:59:58;;;;;;;0.40;0.40;;;-0.50;99.90;;;;;;5095215;28;20044;-72
2022/03/06 07:02:24;;;;;;;0.40;0.40;;;-0.40;99.90;;;;;;5095167;28;20044;-71
2022/03/06 07:04:50;;;;;;;0.40;0.40;;;-0.40;99.90;;;;;;5095182;28;20403;-74
2022/03/06 07:07:16;;;;;;;0.40;0.40;;;-0.30;99.90;;;;;;5094002;28;20135;-72
2022/03/06 07:09:41;;;;;;;0.40;0.40;;;-0.20;99.90;;;;;;5094969;28;20039;-72
2022/03/06 07:12:08;;;;;;;0.40;0.40;;;-0.30;99.90;;;;;;5094788;28;20085;-72
2022/03/06 07:14:33;;;;;;;0.40;0.40;;;-0.20;99.90;;;;;;5095191;28;20079;-71
2022/03/06 07:16:59;;;;;;;0.40;0.40;;;-0.10;99.90;;;;;;5094618;28;20043;-72
2022/03/06 07:19:25;;;;;;;0.40;0.40;;;-0.10;99.90;;;;;;5094805;28;20471;-73
2022/03/06 07:21:50;;;;;;;0.40;0.40;;;0.00;99.90;;;;;;5094811;28;20066;-74
2022/03/06 07:24:16;;;;;;;0.40;0.40;;;0.00;99.90;;;;;;5094773;28;20047;-72
2022/03/06 07:26:42;;;;;;;0.40;0.40;;;0.10;99.90;;;;;;5094612;28;20392;-70
2022/03/06 07:29:08;;;;;;;0.40;0.40;;;0.10;99.90;;;;;;5094396;28;20092;-71
2022/03/06 07:31:34;;;;;;;0.40;0.40;;;0.20;99.90;;;;;;5094332;28;20055;-71
2022/03/06 07:33:59;;;;;;;0.40;0.40;;;0.30;99.90;;;;;;5094597;28;20044;-72
2022/03/06 07:36:25;;;;;;;0.40;0.40;;;0.30;99.90;;;;;;5094344;28;20044;-71
2022/03/06 07:38:51;;;;;;;0.40;0.40;;;0.30;99.90;;;;;;5094734;28;20055;-71
2022/03/06 07:41:17;;;;;;;0.40;0.40;;;0.40;99.90;;;;;;5094558;28;20040;-71
2022/03/06 07:43:43;;;;;;;0.40;0.40;;;0.40;99.90;;;;;;5094480;28;20050;-71
2022/03/06 07:46:09;;;;;;;0.40;0.40;;;0.50;99.90;;;;;;5094276;28;20047;-72
2022/03/06 07:48:35;;;;;;;0.40;0.40;;;0.50;99.90;;;;;;5093606;28;20059;-72
2022/03/06 07:51:01;;;;;;;0.40;0.40;;;0.50;99.90;;;;;;5094094;28;20048;-70
2022/03/06 07:53:27;;;;;;;0.40;0.40;;;0.50;99.90;;;;;;5094434;28;20075;-75
2022/03/06 07:55:52;;;;;;;0.40;0.40;;;0.60;99.90;;;;;;5094399;28;20472;-76
2022/03/06 07:58:18;;;;;;;0.40;0.40;;;0.60;99.90;;;;;;5094515;28;20443;-72
2022/03/06 08:00:44;;;;;;;0.40;0.40;;;0.60;99.90;;;;;;5094096;28;20105;-75
2022/03/06 08:03:10;;;;;;;0.40;0.40;;;0.60;99.90;;;;;;5094076;28;20044;-74
2022/03/06 08:05:35;;;;;;;0.40;0.40;;;0.60;99.90;;;;;;5094231;28;20044;-73
2022/03/06 08:08:01;;;;;;;0.40;0.40;;;0.70;99.90;;;;;;5094006;28;20039;-73
2022/03/06 08:10:27;;;;;;;0.40;0.40;;;0.70;99.90;;;;;;5094037;28;20396;-74
2022/03/06 08:12:52;;;;;;;0.40;0.40;;;0.80;99.90;;;;;;5093659;28;20060;-74
2022/03/06 08:15:18;;;;;;;0.40;0.40;;;0.80;99.90;;;;;;5092703;28;20440;-73
2022/03/06 08:17:43;;;;;;;0.38;0.38;;;0.90;99.90;;;;;;5093580;28;20400;-72
2022/03/06 08:20:09;;;;;;;0.30;0.30;;;0.90;99.90;;;;;;5093892;28;20040;-73
2022/03/06 08:22:35;;;;;;;0.40;0.40;;;1.00;99.90;;;;;;5093889;28;20055;-72
2022/03/06 08:25:01;;;;;;;0.38;0.38;;;1.40;99.90;;;;;;5093907;28;20504;-71
2022/03/06 08:27:27;;;;;;;0.40;0.40;;;1.20;99.90;;;;;;5093802;28;20047;-73
2022/03/06 08:29:52;;;;;;;0.40;0.40;;;1.30;99.90;;;;;;5093562;28;20040;-71
2022/03/06 08:32:18;;;;;;;0.40;0.40;;;1.20;99.90;;;;;;5093243;28;20052;-71
2022/03/06 08:34:44;;;;;;;0.40;0.40;;;1.30;99.90;;;;;;5093762;28;20040;-72
2022/03/06 08:37:10;;;;;;;0.40;0.40;;;1.30;99.90;;;;;;5092429;28;20388;-72
2022/03/06 08:39:35;;;;;;;0.40;0.40;;;1.30;99.90;;;;;;5090099;28;20048;-72
2022/03/06 08:42:01;;;;;;;0.40;0.40;;;1.10;99.90;;;;;;5091902;28;20403;-72
2022/03/06 08:44:27;;;;;;;0.40;0.40;;;1.50;99.90;;;;;;5093122;28;20492;-72
2022/03/06 08:46:52;;;;;;;0.40;0.40;;;1.60;99.90;;;;;;5093243;28;20044;-72
2022/03/06 08:49:18;;;;;;;0.40;0.40;;;1.60;99.90;;;;;;5093374;28;20048;-72
2022/03/06 08:51:44;;;;;;;0.40;0.40;;;1.70;99.90;;;;;;5093311;28;20545;-72
2022/03/06 08:54:09;;;;;;;0.38;0.38;;;1.80;99.90;;;;;;5093534;28;20047;-72
2022/03/06 08:56:35;;;;;;;0.40;0.40;;;1.90;99.90;;;;;;5092346;28;20036;-73
2022/03/06 08:59:01;;;;;;;0.40;0.40;;;2.00;99.90;;;;;;5095576;28;20094;-72
2022/03/06 09:01:26;;;;;;;0.30;0.30;;;2.00;99.90;;;;;;5097517;28;20043;-73
2022/03/06 09:03:52;;;;;;;0.40;0.40;;;2.10;99.90;;;;;;5097459;28;20549;-73
2022/03/06 09:06:18;;;;;;;0.40;0.40;;;2.10;99.90;;;;;;5097394;28;20083;-73
2022/03/06 09:08:44;;;;;;;0.30;0.30;;;2.20;99.90;;;;;;5097702;28;20036;-73
2022/03/06 09:11:10;;;;;;;0.30;0.30;;;2.10;99.90;;;;;;5097375;28;20051;-73
2022/03/06 09:13:36;;;;;;;0.40;0.40;;;2.40;99.90;;;;;;5097794;28;20290;-73
2022/03/06 09:16:03;;;;;;;0.30;0.30;;;2.30;99.90;;;;;;5097264;28;20118;-73
2022/03/06 09:18:29;;;;;;;;;;;2.50;99.90;;;;;;5097658;28;20121;-72
2022/03/06 09:20:54;;;;;;;0.30;0.30;;;2.50;99.90;;;;;;5097500;28;19920;-73
2022/03/06 09:23:20;;;;;;;0.30;0.30;;;2.60;99.90;;;;;;5097140;28;20075;-73
2022/03/06 09:25:45;;;;;;;0.30;0.30;;;2.70;99.90;;;;;;5097031;28;20130;-73
2022/03/06 09:28:11;;;;;;;0.30;0.30;;;2.80;99.90;;;;;;5096783;28;20093;-74
2022/03/06 09:30:37;;;;;;;0.40;0.40;;;2.80;99.90;;;;;;5096892;28;20046;-74
2022/03/06 09:33:03;;;;;;;0.40;0.40;;;2.90;99.90;;;;;;5096602;28;20110;-74
2022/03/06 09:35:28;;;;;;;0.40;0.40;;;3.00;99.90;;;;;;5096948;28;20109;-73
2022/03/06 09:37:54;;;;;;;0.30;0.30;;;3.10;99.90;;;;;;5096794;28;20473;-74
2022/03/06 09:40:20;;;;;;;0.30;0.30;;;3.20;99.90;;;;;;5096788;28;20495;-73
2022/03/06 09:42:46;;;;;;;0.30;0.30;;;3.20;99.90;;;;;;5096786;28;20044;-74
2022/03/06 09:45:13;;;;;;;0.30;0.30;;;3.30;99.90;;;;;;5096725;28;20085;-73
2022/03/06 09:47:40;;;;;;;0.30;0.30;;;3.30;99.90;;;;;;5096274;28;20173;-74
2022/03/06 09:50:06;;;;;;;;;;;3.40;99.90;;;;;;5097437;28;20048;-74
2022/03/06 09:52:32;;;;;;;0.30;0.30;;;3.50;99.90;;;;;;5096795;28;19941;-74
2022/03/06 09:54:58;;;;;;;0.35;0.35;;;4.10;99.90;;;;;;5096512;28;20044;-74
2022/03/06 09:57:23;;;;;;;0.30;0.30;;;3.70;99.90;;;;;;5096373;28;20480;-74
2022/03/06 09:59:49;;;;;;;0.30;0.30;;;3.70;99.90;;;;;;5096117;28;20048;-73
2022/03/06 10:02:16;;;;;;;0.30;0.30;;;3.70;99.90;;;;;;5096867;28;20119;-73
2022/03/06 10:04:42;;;;;;;0.30;0.30;;;3.80;99.90;;;;;;5096752;28;20422;-74
2022/03/06 10:07:08;;;;;;;0.30;0.30;;;3.80;99.90;;;;;;5096671;28;20036;-73
2022/03/06 10:09:54;;;;;;;0.30;0.30;;;3.90;99.90;;;;;;5094591;28;20044;-74
2022/03/06 10:12:27;;;;;;;0.30;0.30;;;3.90;99.90;;;;;;5095774;28;20530;-74
2022/03/06 10:15:04;;;;;;;0.30;0.30;;;4.00;99.90;;;;;;5096025;28;20412;-73
2022/03/06 10:17:31;;;;;;;0.30;0.30;;;4.00;99.90;;;;;;5096640;28;20040;-74
2022/03/06 10:20:05;;;;;;;0.30;0.30;;;4.00;99.90;;;;;;5096048;28;20047;-74
2022/03/06 10:22:34;;;;;;;0.30;0.30;;;4.10;99.90;;;;;;5096039;28;20055;-73
2022/03/06 10:25:16;;;;;;;0.30;0.30;;;4.10;99.90;;;;;;5095944;28;20445;-73
2022/03/06 10:27:53;;;;;;;0.30;0.30;;;4.20;99.90;;;;;;5095823;28;20089;-73
2022/03/06 10:30:26;;;;;;;0.32;0.32;;;4.20;99.90;;;;;;5095827;28;20044;-74
2022/03/06 10:32:53;;;;;;;0.30;0.30;;;4.20;99.90;;;;;;5095760;28;20083;-73
2022/03/06 10:35:18;;;;;;;0.30;0.30;;;4.20;99.90;;;;;;5095888;28;20051;-72
2022/03/06 10:37:44;;;;;;;0.30;0.30;;;4.30;99.90;;;;;;5095611;28;20044;-73
2022/03/06 10:40:14;;;;;;;0.30;0.30;;;4.40;99.90;;;;;;5096054;28;20503;-74
2022/03/06 10:42:43;;;;;;;0.30;0.30;;;4.40;99.90;;;;;;5095568;28;20043;-73
2022/03/06 10:45:25;;;;;;;0.30;0.30;;;4.40;99.90;;;;;;5094941;28;20108;-73
2022/03/06 10:47:50;;;;;;;0.30;0.30;;;4.50;99.90;;;;;;5095545;28;20036;-73
2022/03/06 10:50:25;;;;;;;0.30;0.30;;;4.50;99.90;;;;;;5095383;28;20472;-73
2022/03/06 10:52:53;;;;;;;0.30;0.30;;;4.50;99.90;;;;;;5095394;28;20169;-73
2022/03/06 10:55:31;;;;;;;0.30;0.30;;;4.60;99.90;;;;;;5095478;28;20444;-72
2022/03/06 10:57:57;;;;;;;0.30;0.30;;;4.60;99.90;;;;;;5095414;28;20369;-73
2022/03/06 11:00:23;;;;;;;0.30;0.30;;;5.00;99.90;;;;;;5095346;28;20052;-73
2022/03/06 11:02:50;;;;;;;0.30;0.30;;;4.60;99.90;;;;;;5095116;28;20429;-73
2022/03/06 11:05:16;;;;;;;0.30;0.30;;;4.60;99.90;;;;;;5095223;28;20127;-72
2022/03/06 11:07:41;;;;;;;0.30;0.30;;;4.70;99.90;;;;;;5094940;28;20127;-73
2022/03/06 11:10:07;;;;;;;0.30;0.30;;;4.80;99.90;;;;;;5094965;28;20040;-73
2022/03/06 11:12:33;;;;;;;0.30;0.30;;;4.80;99.90;;;;;;5095063;28;20052;-73
2022/03/06 11:14:59;;;;;;;0.30;0.30;;;4.90;99.90;;;;;;5095072;28;20048;-72
2022/03/06 11:17:26;;;;;;;0.30;0.30;;;4.90;99.90;;;;;;5094361;28;20044;-73
2022/03/06 11:19:51;;;;;;;0.30;0.30;;;4.90;99.90;;;;;;5094609;28;20101;-73
2022/03/06 11:22:26;;;;;;;0.30;0.30;;;5.00;99.90;;;;;;5094880;28;20048;-73
2022/03/06 11:24:59;;;;;;;0.30;0.30;;;5.00;99.90;;;;;;5094649;28;20051;-73
2022/03/06 11:27:27;;;;;;;0.30;0.30;;;5.10;99.90;;;;;;5094706;28;20040;-75
2022/03/06 11:30:06;;;;;;;0.30;0.30;;;5.10;99.90;;;;;;5094577;28;20086;-74
2022/03/06 11:32:37;;;;;;;0.30;0.30;;;5.20;99.90;;;;;;5095126;28;20036;-75
2022/03/06 11:35:08;;;;;;;0.30;0.30;;;5.20;99.90;;;;;;5094565;28;20044;-76
2022/03/06 11:37:49;;;;;;;0.30;0.30;;;5.20;99.90;;;;;;5094518;28;20044;-75
2022/03/06 11:40:34;;;;;;;0.30;0.30;;;5.30;99.90;;;;;;5094500;28;20400;-75
2022/03/06 11:42:59;;;;;;;0.30;0.30;;;5.30;99.90;;;;;;5094441;28;20090;-75
2022/03/06 11:45:44;;;;;;;0.30;0.30;;;5.40;99.90;;;;;;5094353;28;20048;-74
2022/03/06 11:48:11;;;;;;;0.30;0.30;;;5.40;99.90;;;;;;5094162;28;20043;-73
2022/03/06 11:50:36;;;;;;;0.30;0.30;;;5.50;99.90;;;;;;5094404;28;20110;-73
2022/03/06 11:53:47;;;;;;;0.30;0.30;;;5.50;99.90;;;;;;5094198;28;20083;-74
2022/03/06 11:56:31;;;;;;;0.30;0.30;;;5.70;99.90;;;;;;5094257;28;20040;-72
2022/03/06 11:58:58;;;;;;;0.30;0.30;;;5.70;99.90;;;;;;5094067;28;20516;-74
2022/03/06 12:01:28;;;;;;;0.30;0.30;;;5.70;99.90;;;;;;5094170;28;20126;-74
2022/03/06 12:03:55;;;;;;;0.30;0.30;;;5.70;99.90;;;;;;5094119;28;20040;-73
2022/03/06 12:06:22;;;;;;;0.30;0.30;;;5.80;99.90;;;;;;5093214;28;20062;-72
2022/03/06 12:08:48;;;;;;;0.30;0.30;;;5.80;99.90;;;;;;5094044;28;20193;-75
2022/03/06 12:11:14;;;;;;;0.30;0.30;;;5.80;99.90;;;;;;5093746;28;20131;-73
2022/03/06 12:13:40;;;;;;;0.30;0.30;;;5.90;99.90;;;;;;5093373;28;20055;-74
2022/03/06 12:16:12;;;;;;;0.30;0.30;;;6.00;99.90;;;;;;5094279;28;20047;-74
2022/03/06 12:18:38;;;;;;;0.30;0.30;;;6.00;99.90;;;;;;5094229;28;20388;-77
2022/03/06 12:21:22;;;;;;;0.30;0.30;;;6.00;99.90;;;;;;5093963;28;20127;-80
2022/03/06 12:23:47;;;;;;;0.30;0.30;;;6.10;99.90;;;;;;5093118;28;20400;-80
2022/03/06 12:26:13;;;;;;;0.30;0.30;;;6.10;99.90;;;;;;5092941;28;20043;-79
2022/03/06 12:28:43;;;;;;;0.30;0.30;;;6.40;99.90;;;;;;5092587;28;20048;-82
2022/03/06 12:31:31;;;;;;;0.30;0.30;;;6.10;99.90;;;;;;5076085;28;20442;-79
2022/03/06 12:33:57;;;;;;;;;;;6.10;99.90;;;;;;5098278;28;20075;-82
2022/03/06 12:36:24;;;;;;;0.30;0.30;;;6.10;99.90;;;;;;5100458;28;20318;-81
2022/03/06 12:39:02;;;;;;;0.30;0.30;;;6.20;99.90;;;;;;5099471;28;20036;-75
2022/03/06 12:41:28;;;;;;;0.28;0.28;;;6.20;99.90;;;;;;5100869;28;20044;-78
2022/03/06 12:44:00;;;;;;;0.30;0.30;;;6.20;99.90;;;;;;5100964;28;20396;-76
2022/03/06 12:46:25;;;;;;;0.30;0.30;;;6.30;99.90;;;;;;5099426;28;20036;-74
2022/03/06 12:48:51;;;;;;;0.30;0.30;;;6.40;99.90;;;;;;5100373;28;20128;-73
2022/03/06 12:51:32;;;;;;;0.20;0.20;;;6.50;99.90;;;;;;5100299;28;20040;-74